createdAt,value
2022-08-19T00:00:23.940Z,1.50
2022-08-19T00:01:28.796Z,1.75
2022-08-19T00:02:31.538Z,1.50
2022-08-19T00:03:34.717Z,1.50
2022-08-19T00:04:37.935Z,2.00
2022-08-19T00:05:41.289Z,2.00
2022-08-19T00:06:44.491Z,2.00
2022-08-19T00:07:47.754Z,1.00
2022-08-19T00:08:50.933Z,1.00
2022-08-19T00:09:54.015Z,1.50
2022-08-19T00:10:58.423Z,1.25
2022-08-19T00:12:01.503Z,1.50
2022-08-19T00:13:04.789Z,1.50
2022-08-19T00:14:07.820Z,1.25
2022-08-19T00:15:11.575Z,2.00
2022-08-19T00:16:15.459Z,2.00
2022-08-19T00:17:18.748Z,1.25
2022-08-19T00:18:21.925Z,1.00
2022-08-19T00:19:25.451Z,1.75
2022-08-19T00:20:28.806Z,2.00
2022-08-19T00:21:32.083Z,2.00
2022-08-19T00:22:35.512Z,2.00
2022-08-19T00:23:38.656Z,2.00
2022-08-19T00:24:42.144Z,1.50
2022-08-19T00:25:48.767Z,1.00
2022-08-19T00:26:50.973Z,1.50
2022-08-19T00:27:54.452Z,1.50
2022-08-19T00:28:57.850Z,1.00
2022-08-19T00:30:00.873Z,0.50
2022-08-19T00:31:04.107Z,2.00
2022-08-19T00:32:07.287Z,2.25
2022-08-19T00:33:11.590Z,2.25
2022-08-19T00:34:14.777Z,0.75
2022-08-19T00:35:17.987Z,1.75
2022-08-19T00:36:21.137Z,2.00
2022-08-19T00:37:24.522Z,1.00
2022-08-19T00:38:37.745Z,0.50
2022-08-19T00:39:32.360Z,0.75
2022-08-19T00:40:35.913Z,1.50
2022-08-19T00:41:39.503Z,0.50
2022-08-19T00:42:42.899Z,1.00
2022-08-19T00:43:45.937Z,1.00
2022-08-19T00:44:49.208Z,0.00
2022-08-19T00:45:52.435Z,0.50
2022-08-19T00:46:58.001Z,1.00
2022-08-19T00:48:00.184Z,1.00
2022-08-19T00:49:03.317Z,0.50
2022-08-19T00:50:06.448Z,0.00
2022-08-19T00:51:09.774Z,1.50
2022-08-19T00:52:12.814Z,2.00
2022-08-19T00:53:15.831Z,0.50
2022-08-19T00:54:18.967Z,0.60
2022-08-19T00:55:23.326Z,0.25
2022-08-19T00:56:26.711Z,0.25
2022-08-19T00:57:30.100Z,1.00
2022-08-19T00:58:33.294Z,1.00
2022-08-19T00:59:56.278Z,1.00
2022-08-19T01:00:40.735Z,0.50
2022-08-19T01:01:44.007Z,0.50
2022-08-19T01:02:47.279Z,0.50
2022-08-19T01:03:57.783Z,0.00
2022-08-19T01:04:54.926Z,1.00
2022-08-19T01:05:58.124Z,1.00
2022-08-19T01:07:01.303Z,1.50
2022-08-19T01:08:04.985Z,0.75
2022-08-19T01:09:08.203Z,0.50
2022-08-19T01:10:11.349Z,1.50
2022-08-19T01:11:14.428Z,1.00
2022-08-19T01:12:17.624Z,1.00
2022-08-19T01:13:20.894Z,1.00
2022-08-19T01:14:24.387Z,0.50
2022-08-19T01:15:27.770Z,0.25
2022-08-19T01:16:31.057Z,1.50
2022-08-19T01:17:34.341Z,2.00
2022-08-19T01:18:37.483Z,0.50
2022-08-19T01:19:43.923Z,1.00
2022-08-19T01:20:45.319Z,0.50
2022-08-19T01:21:48.604Z,0.25
2022-08-19T01:22:52.011Z,0.00
2022-08-19T01:23:55.581Z,0.50
2022-08-19T01:24:59.321Z,0.50
2022-08-19T01:26:02.820Z,1.00
2022-08-19T01:27:05.843Z,1.00
2022-08-19T01:28:10.879Z,0.25
2022-08-19T01:29:14.311Z,0.50
2022-08-19T01:30:18.461Z,0.50
2022-08-19T01:31:26.979Z,0.50
2022-08-19T01:32:33.277Z,0.50
2022-08-19T01:33:30.264Z,0.50
2022-08-19T01:34:33.439Z,0.50
2022-08-19T01:35:36.624Z,0.50
2022-08-19T01:36:39.802Z,0.50
2022-08-19T01:37:42.990Z,0.50
2022-08-19T01:38:46.278Z,0.50
2022-08-19T01:39:49.368Z,0.60
2022-08-19T01:40:52.537Z,0.50
2022-08-19T01:41:55.611Z,0.00
2022-08-19T01:42:58.994Z,1.00
2022-08-19T01:44:03.805Z,0.50
2022-08-19T01:45:06.591Z,0.00
2022-08-19T01:46:09.672Z,0.00
2022-08-19T01:47:12.850Z,0.00
2022-08-19T01:48:16.138Z,1.00
2022-08-19T01:49:19.421Z,0.50
2022-08-19T01:50:22.704Z,0.00
2022-08-19T01:51:26.918Z,0.50
2022-08-19T01:52:30.909Z,1.00
2022-08-19T01:53:34.096Z,1.00
2022-08-19T01:54:37.373Z,0.50
2022-08-19T01:55:41.465Z,0.00
2022-08-19T01:56:44.969Z,0.00
2022-08-19T01:57:48.254Z,0.50
2022-08-19T01:58:51.536Z,0.25
2022-08-19T01:59:54.818Z,0.00
2022-08-19T02:00:58.016Z,0.00
2022-08-19T02:02:01.190Z,0.00
2022-08-19T02:03:04.470Z,0.50
2022-08-19T02:04:07.648Z,0.25
2022-08-19T02:05:11.394Z,0.00
2022-08-19T02:06:14.732Z,0.00
2022-08-19T02:07:17.915Z,0.00
2022-08-19T02:08:21.196Z,0.00
2022-08-19T02:09:24.481Z,0.00
2022-08-19T02:10:27.767Z,0.00
2022-08-19T02:11:30.949Z,0.00
2022-08-19T02:12:34.127Z,0.00
2022-08-19T02:13:38.292Z,0.25
2022-08-19T02:14:41.415Z,0.50
2022-08-19T02:15:44.503Z,1.00
2022-08-19T02:16:48.819Z,1.00
2022-08-19T02:17:52.095Z,1.00
2022-08-19T02:18:55.459Z,1.00
2022-08-19T02:19:58.857Z,0.50
2022-08-19T02:21:02.246Z,0.50
2022-08-19T02:22:05.402Z,0.50
2022-08-19T02:23:13.358Z,0.00
2022-08-19T02:24:16.193Z,0.00
2022-08-19T02:25:19.347Z,0.00
2022-08-19T02:26:22.557Z,0.00
2022-08-19T02:27:25.619Z,0.00
2022-08-19T02:28:28.822Z,0.00
2022-08-19T02:29:31.911Z,0.00
2022-08-19T02:30:35.175Z,0.00
2022-08-19T02:31:38.363Z,0.00
2022-08-19T02:32:44.412Z,0.00
2022-08-19T02:33:45.850Z,0.00
2022-08-19T02:34:49.036Z,0.00
2022-08-19T02:35:52.233Z,0.25
2022-08-19T02:36:55.403Z,0.00
2022-08-19T02:37:58.579Z,0.00
2022-08-19T02:39:01.763Z,0.00
2022-08-19T02:40:05.086Z,0.00
2022-08-19T02:41:09.362Z,0.00
2022-08-19T02:42:12.538Z,0.00
2022-08-19T02:43:15.818Z,0.00
2022-08-19T02:44:31.229Z,0.00
2022-08-19T02:45:23.514Z,0.00
2022-08-19T02:46:26.916Z,0.00
2022-08-19T02:47:30.144Z,0.00
2022-08-19T02:48:33.273Z,0.00
2022-08-19T02:49:36.581Z,0.00
2022-08-19T02:50:39.937Z,0.00
2022-08-19T02:51:44.451Z,0.00
2022-08-19T02:52:47.888Z,0.00
2022-08-19T02:53:51.223Z,0.50
2022-08-19T02:54:54.537Z,0.00
2022-08-19T02:55:57.690Z,0.25
2022-08-19T02:57:00.970Z,0.00
2022-08-19T02:58:04.157Z,0.00
2022-08-19T02:59:08.487Z,0.50
2022-08-19T03:00:12.734Z,0.00
2022-08-19T03:01:15.875Z,0.00
2022-08-19T03:02:19.038Z,0.00
2022-08-19T03:03:22.213Z,0.00
2022-08-19T03:04:25.499Z,0.00
2022-08-19T03:05:47.977Z,0.50
2022-08-19T03:06:32.987Z,0.00
2022-08-19T03:07:36.275Z,0.00
2022-08-19T03:08:39.762Z,0.00
2022-08-19T03:09:43.042Z,0.50
2022-08-19T03:10:46.326Z,0.50
2022-08-19T03:11:49.880Z,0.25
2022-08-19T03:12:54.044Z,0.25
2022-08-19T03:13:57.412Z,0.00
2022-08-19T03:15:00.752Z,0.00
2022-08-19T03:16:03.777Z,0.00
2022-08-19T03:17:07.363Z,1.75
2022-08-19T03:18:10.549Z,3.00
2022-08-19T03:19:14.853Z,1.00
2022-08-19T03:20:18.138Z,1.00
2022-08-19T03:21:21.423Z,1.00
2022-08-19T03:22:27.885Z,0.50
2022-08-19T03:23:31.373Z,0.50
2022-08-19T03:24:34.661Z,0.50
2022-08-19T03:25:38.145Z,0.50
2022-08-19T03:26:41.637Z,0.50
2022-08-19T03:27:45.120Z,1.00
2022-08-19T03:28:51.090Z,1.50
2022-08-19T03:29:53.128Z,1.00
2022-08-19T03:30:56.522Z,0.00
2022-08-19T03:31:59.721Z,0.00
2022-08-19T03:33:04.171Z,1.00
2022-08-19T03:34:08.626Z,1.00
2022-08-19T03:35:12.007Z,0.00
2022-08-19T03:36:15.186Z,0.00
2022-08-19T03:37:18.376Z,0.00
2022-08-19T03:38:21.549Z,0.50
2022-08-19T03:39:24.752Z,0.25
2022-08-19T03:40:28.217Z,0.00
2022-08-19T03:41:34.382Z,0.00
2022-08-19T03:42:48.797Z,0.00
2022-08-19T03:43:40.446Z,0.00
2022-08-19T03:44:43.719Z,0.00
2022-08-19T03:45:47.208Z,0.25
2022-08-19T03:46:50.844Z,0.00
2022-08-19T03:47:54.205Z,0.25
2022-08-19T03:48:57.476Z,0.50
2022-08-19T03:50:00.950Z,0.00
2022-08-19T03:51:04.346Z,0.00
2022-08-19T03:52:07.470Z,0.00
2022-08-19T03:53:10.601Z,0.00
2022-08-19T03:54:13.855Z,0.00
2022-08-19T03:55:16.975Z,0.00
2022-08-19T03:56:20.249Z,0.00
2022-08-19T03:57:31.627Z,0.00
2022-08-19T03:58:27.840Z,0.00
2022-08-19T03:59:30.923Z,0.00
2022-08-19T04:00:34.011Z,0.00
2022-08-19T04:01:37.120Z,0.00
2022-08-19T04:02:40.152Z,0.00
2022-08-19T04:03:43.228Z,0.00
2022-08-19T04:04:46.198Z,0.00
2022-08-19T04:05:49.499Z,0.00
2022-08-19T04:06:52.647Z,0.00
2022-08-19T04:07:55.656Z,0.00
2022-08-19T04:08:58.736Z,0.00
2022-08-19T04:10:01.922Z,0.00
2022-08-19T04:11:05.203Z,0.00
2022-08-19T04:12:08.385Z,0.00
2022-08-19T04:13:11.571Z,0.00
2022-08-19T04:14:14.645Z,0.00
2022-08-19T04:15:17.831Z,0.00
2022-08-19T04:16:20.970Z,0.00
2022-08-19T04:17:23.946Z,0.00
2022-08-19T04:18:27.141Z,0.00
2022-08-19T04:19:30.555Z,0.00
2022-08-19T04:20:33.840Z,0.00
2022-08-19T04:21:37.085Z,0.00
2022-08-19T04:22:40.199Z,0.00
2022-08-19T04:23:44.776Z,0.00
2022-08-19T04:24:48.100Z,0.00
2022-08-19T04:25:51.490Z,0.50
2022-08-19T04:26:54.772Z,0.50
2022-08-19T04:27:57.855Z,0.00
2022-08-19T04:29:01.031Z,0.25
2022-08-19T04:30:04.213Z,1.00
2022-08-19T04:31:07.499Z,1.50
2022-08-19T04:32:10.683Z,1.00
2022-08-19T04:33:13.969Z,0.50
2022-08-19T04:34:17.162Z,0.00
2022-08-19T04:35:23.148Z,0.50
2022-08-19T04:36:24.741Z,0.50
2022-08-19T04:37:34.981Z,0.00
2022-08-19T04:38:32.333Z,0.00
2022-08-19T04:39:35.438Z,0.00
2022-08-19T04:40:38.500Z,0.00
2022-08-19T04:41:41.580Z,0.00
2022-08-19T04:42:44.649Z,0.75
2022-08-19T04:43:47.835Z,1.00
2022-08-19T04:44:51.013Z,1.00
2022-08-19T04:45:56.867Z,2.00
2022-08-19T04:46:59.120Z,2.50
2022-08-19T04:48:27.425Z,1.00
2022-08-19T04:49:10.353Z,0.50
2022-08-19T04:50:11.353Z,0.00
2022-08-19T04:51:14.420Z,1.00
2022-08-19T04:52:17.693Z,0.50
2022-08-19T04:53:21.077Z,0.50
2022-08-19T04:54:38.488Z,1.00
2022-08-19T04:55:28.556Z,0.50
2022-08-19T04:56:31.659Z,0.00
2022-08-19T04:57:34.835Z,0.00
2022-08-19T04:58:38.043Z,1.00
2022-08-19T04:59:41.192Z,1.00
2022-08-19T05:00:44.404Z,0.00
2022-08-19T05:01:47.666Z,0.50
2022-08-19T05:02:51.430Z,1.00
2022-08-19T05:03:54.636Z,1.00
2022-08-19T05:04:57.815Z,0.75
2022-08-19T05:06:01.098Z,0.00
2022-08-19T05:07:04.387Z,0.50
2022-08-19T05:08:07.671Z,0.50
2022-08-19T05:09:10.864Z,0.50
2022-08-19T05:10:14.101Z,1.00
2022-08-19T05:11:17.215Z,0.50
2022-08-19T05:12:20.498Z,0.50
2022-08-19T05:13:23.783Z,0.50
2022-08-19T05:14:26.964Z,0.50
2022-08-19T05:15:30.117Z,2.00
2022-08-19T05:16:33.127Z,1.25
2022-08-19T05:17:38.613Z,0.00
2022-08-19T05:18:40.639Z,0.50
2022-08-19T05:19:43.798Z,0.00
2022-08-19T05:20:46.989Z,0.00
2022-08-19T05:21:50.065Z,0.00
2022-08-19T05:22:56.436Z,1.00
2022-08-19T05:23:57.649Z,1.00
2022-08-19T05:25:12.165Z,0.50
2022-08-19T05:26:05.039Z,0.50
2022-08-19T05:27:08.222Z,0.50
2022-08-19T05:28:11.298Z,1.00
2022-08-19T05:29:14.584Z,0.40
2022-08-19T05:30:17.766Z,0.50
2022-08-19T05:31:20.859Z,0.50
2022-08-19T05:32:23.927Z,0.00
2022-08-19T05:33:27.313Z,0.00
2022-08-19T05:34:30.553Z,0.00
2022-08-19T05:35:34.708Z,0.00
2022-08-19T05:36:38.391Z,1.00
2022-08-19T05:37:41.987Z,0.00
2022-08-19T05:38:45.471Z,0.50
2022-08-19T05:39:51.443Z,0.50
2022-08-19T05:40:53.470Z,0.25
2022-08-19T05:42:08.901Z,0.00
2022-08-19T05:43:12.159Z,0.00
2022-08-19T05:44:15.407Z,0.00
2022-08-19T05:45:18.592Z,0.00
2022-08-19T05:46:27.851Z,0.00
2022-08-19T05:47:26.289Z,0.50
2022-08-19T05:48:29.664Z,1.00
2022-08-19T05:49:33.062Z,0.50
2022-08-19T05:50:36.321Z,0.75
2022-08-19T05:51:39.932Z,0.75
2022-08-19T05:52:43.732Z,0.00
2022-08-19T05:53:47.746Z,0.00
2022-08-19T05:54:51.644Z,0.50
2022-08-19T05:55:54.809Z,0.50
2022-08-19T05:56:59.118Z,0.50
2022-08-19T05:58:02.606Z,0.50
2022-08-19T05:59:06.199Z,0.25
2022-08-19T06:00:10.364Z,0.50
2022-08-19T06:01:13.602Z,0.00
2022-08-19T06:02:17.017Z,0.00
2022-08-19T06:03:20.125Z,0.00
2022-08-19T06:04:23.243Z,0.00
2022-08-19T06:05:26.703Z,0.00
2022-08-19T06:06:29.828Z,0.00
2022-08-19T06:07:33.067Z,0.00
2022-08-19T06:08:36.060Z,0.50
2022-08-19T06:09:39.168Z,1.00
2022-08-19T06:10:42.543Z,0.00
2022-08-19T06:11:45.824Z,0.00
2022-08-19T06:14:07.802Z,0.50
2022-08-19T06:15:10.837Z,0.00
2022-08-19T06:16:13.906Z,0.00
2022-08-19T06:17:17.106Z,0.00
2022-08-19T06:18:21.498Z,0.00
2022-08-19T06:19:24.688Z,0.00
2022-08-19T06:20:52.573Z,0.00
2022-08-19T06:21:32.679Z,0.50
2022-08-19T06:22:37.063Z,0.00
2022-08-19T06:23:40.358Z,0.00
2022-08-19T06:24:44.440Z,0.00
2022-08-19T06:25:50.324Z,0.00
2022-08-19T06:26:54.158Z,0.00
2022-08-19T06:28:15.003Z,0.00
2022-08-19T06:29:02.325Z,0.00
2022-08-19T06:30:05.708Z,0.00
2022-08-19T06:31:09.005Z,0.00
2022-08-19T06:32:12.025Z,0.00
2022-08-19T06:33:15.064Z,0.00
2022-08-19T06:34:18.458Z,0.00
2022-08-19T06:35:21.550Z,0.00
2022-08-19T06:36:25.259Z,0.00
2022-08-19T06:37:28.907Z,0.00
2022-08-19T06:38:32.099Z,0.00
2022-08-19T06:39:35.290Z,0.00
2022-08-19T06:40:38.496Z,0.50
2022-08-19T06:41:47.131Z,0.00
2022-08-19T06:42:54.794Z,0.00
2022-08-19T06:43:50.247Z,0.00
2022-08-19T06:44:54.570Z,0.50
2022-08-19T06:45:57.840Z,0.40
2022-08-19T06:47:02.021Z,0.75
2022-08-19T06:48:06.250Z,1.00
2022-08-19T06:49:09.419Z,2.00
2022-08-19T06:50:13.651Z,1.50
2022-08-19T06:51:19.367Z,2.50
2022-08-19T06:52:21.134Z,2.50
2022-08-19T06:53:24.303Z,2.00
2022-08-19T06:54:30.813Z,1.50
2022-08-19T06:55:33.497Z,1.50
2022-08-19T06:56:36.315Z,1.50
2022-08-19T06:57:39.612Z,1.50
2022-08-19T06:58:42.781Z,2.00
2022-08-19T06:59:45.868Z,2.00
2022-08-19T07:00:49.376Z,1.50
2022-08-19T07:01:52.733Z,1.50
2022-08-19T07:03:00.101Z,1.00
2022-08-19T07:04:00.445Z,1.00
2022-08-19T07:05:04.259Z,1.50
2022-08-19T07:06:09.883Z,2.50
2022-08-19T07:07:19.751Z,2.00
2022-08-19T07:08:17.093Z,1.50
2022-08-19T07:09:21.380Z,2.50
2022-08-19T07:10:24.694Z,2.50
2022-08-19T07:11:28.802Z,1.75
2022-08-19T07:12:32.743Z,2.50
2022-08-19T07:13:35.959Z,1.75
2022-08-19T07:14:39.108Z,1.75
2022-08-19T07:15:42.392Z,2.00
2022-08-19T07:16:45.987Z,2.25
2022-08-19T07:17:50.134Z,1.50
2022-08-19T07:18:53.400Z,1.00
2022-08-19T07:19:56.558Z,1.00
2022-08-19T07:20:59.735Z,1.00
2022-08-19T07:22:02.904Z,1.00
2022-08-19T07:23:07.060Z,1.50
2022-08-19T07:24:10.412Z,1.50
2022-08-19T07:25:13.489Z,1.00
2022-08-19T07:26:16.771Z,1.00
2022-08-19T07:27:24.862Z,1.00
2022-08-19T07:28:25.034Z,1.00
2022-08-19T07:29:28.700Z,1.25
2022-08-19T07:30:32.031Z,1.00
2022-08-19T07:31:36.471Z,1.00
2022-08-19T07:32:39.605Z,1.00
2022-08-19T07:33:42.629Z,1.00
2022-08-19T07:34:46.936Z,1.50
2022-08-19T07:35:50.222Z,1.00
2022-08-19T07:36:53.301Z,1.00
2022-08-19T07:37:56.488Z,1.00
2022-08-19T07:38:59.770Z,1.60
2022-08-19T07:40:03.133Z,2.00
2022-08-19T07:41:06.343Z,1.00
2022-08-19T07:42:09.615Z,1.00
2022-08-19T07:43:16.977Z,1.00
2022-08-19T07:44:17.334Z,1.50
2022-08-19T07:45:20.407Z,1.25
2022-08-19T07:46:23.490Z,1.20
2022-08-19T07:47:50.061Z,1.50
2022-08-19T07:48:31.021Z,2.00
2022-08-19T07:49:34.264Z,1.50
2022-08-19T07:50:37.495Z,1.00
2022-08-19T07:51:40.518Z,0.50
2022-08-19T07:52:43.663Z,1.00
2022-08-19T07:53:46.765Z,0.50
2022-08-19T07:54:49.864Z,0.75
2022-08-19T07:55:53.132Z,1.50
2022-08-19T07:56:56.313Z,1.00
2022-08-19T07:57:59.606Z,1.50
2022-08-19T07:59:02.902Z,1.25
2022-08-19T08:00:06.065Z,1.00
2022-08-19T08:01:09.269Z,1.00
2022-08-19T08:02:12.289Z,0.75
2022-08-19T08:03:15.311Z,1.25
2022-08-19T08:04:18.381Z,0.80
2022-08-19T08:05:21.516Z,1.00
2022-08-19T08:06:24.648Z,1.50
2022-08-19T08:07:31.669Z,1.50
2022-08-19T08:08:32.333Z,1.00
2022-08-19T08:09:35.626Z,1.25
2022-08-19T08:10:39.946Z,1.50
2022-08-19T08:11:44.455Z,1.50
2022-08-19T08:13:05.838Z,0.50
2022-08-19T08:14:00.881Z,0.50
2022-08-19T08:14:57.383Z,1.00
2022-08-19T08:16:00.662Z,1.00
2022-08-19T08:17:04.014Z,1.00
2022-08-19T08:18:08.358Z,1.00
2022-08-19T08:19:18.198Z,0.50
2022-08-19T08:20:16.677Z,0.50
2022-08-19T08:21:19.838Z,1.50
2022-08-19T08:22:23.139Z,0.75
2022-08-19T08:23:26.869Z,0.50
2022-08-19T08:24:30.817Z,1.00
2022-08-19T08:25:35.390Z,1.00
2022-08-19T08:26:38.820Z,0.50
2022-08-19T08:27:43.128Z,0.00
2022-08-19T08:28:47.857Z,1.00
2022-08-19T08:29:51.232Z,1.00
2022-08-19T08:30:54.524Z,1.00
2022-08-19T08:31:58.447Z,1.00
2022-08-19T08:33:02.914Z,1.25
2022-08-19T08:34:06.268Z,1.50
2022-08-19T08:35:09.720Z,1.40
2022-08-19T08:36:12.790Z,1.25
2022-08-19T08:37:16.310Z,1.25
2022-08-19T08:38:19.551Z,1.00
2022-08-19T08:39:22.732Z,1.00
2022-08-19T08:40:26.152Z,1.00
2022-08-19T08:41:29.321Z,1.00
2022-08-19T08:42:32.792Z,1.00
2022-08-19T08:43:36.389Z,1.00
2022-08-19T08:44:39.978Z,1.00
2022-08-19T08:45:44.499Z,1.00
2022-08-19T08:46:47.975Z,1.00
2022-08-19T08:47:51.572Z,1.00
2022-08-19T08:48:54.965Z,0.50
2022-08-19T08:49:58.461Z,0.50
2022-08-19T08:51:01.931Z,1.50
2022-08-19T08:52:06.303Z,1.50
2022-08-19T08:53:09.530Z,0.50
2022-08-19T08:54:12.675Z,1.00
2022-08-19T08:55:16.008Z,1.00
2022-08-19T08:56:19.215Z,2.00
2022-08-19T08:57:22.355Z,3.00
2022-08-19T08:58:25.551Z,2.00
2022-08-19T08:59:28.821Z,2.00
2022-08-19T09:00:32.309Z,2.00
2022-08-19T09:01:35.806Z,3.00
2022-08-19T09:02:39.195Z,2.50
2022-08-19T09:03:43.802Z,1.50
2022-08-19T09:04:47.079Z,1.50
2022-08-19T09:05:51.723Z,1.50
2022-08-19T09:06:55.210Z,2.00
2022-08-19T09:07:58.370Z,2.25
2022-08-19T09:09:02.882Z,2.25
2022-08-19T09:10:06.887Z,2.50
2022-08-19T09:11:11.190Z,2.00
2022-08-19T09:12:15.396Z,1.00
2022-08-19T09:13:18.681Z,0.50
2022-08-19T09:14:47.246Z,0.50
2022-08-19T09:15:27.808Z,2.00
2022-08-19T09:16:30.510Z,2.50
2022-08-19T09:17:33.870Z,1.50
2022-08-19T09:18:37.974Z,1.50
2022-08-19T09:19:41.256Z,1.75
2022-08-19T09:20:44.543Z,2.50
2022-08-19T09:21:47.752Z,2.50
2022-08-19T09:22:50.903Z,1.25
2022-08-19T09:23:53.878Z,2.75
2022-08-19T09:24:57.277Z,3.50
2022-08-19T09:26:00.769Z,3.00
2022-08-19T09:27:18.208Z,3.00
2022-08-19T09:28:22.696Z,2.50
2022-08-19T09:29:13.168Z,1.50
2022-08-19T09:30:16.173Z,1.00
2022-08-19T09:31:19.542Z,1.20
2022-08-19T09:32:26.581Z,1.00
2022-08-19T09:33:27.359Z,1.50
2022-08-19T09:34:31.741Z,2.75
2022-08-19T09:35:49.956Z,2.50
2022-08-19T09:36:40.470Z,2.00
2022-08-19T09:37:43.845Z,1.50
2022-08-19T09:38:48.477Z,1.25
2022-08-19T09:39:51.916Z,3.00
2022-08-19T09:40:55.333Z,3.50
2022-08-19T09:41:59.642Z,3.00
2022-08-19T09:43:03.132Z,3.00
2022-08-19T09:44:07.749Z,3.00
2022-08-19T09:45:12.264Z,2.25
2022-08-19T09:46:18.169Z,2.00
2022-08-19T09:47:20.109Z,3.00
2022-08-19T09:48:23.719Z,3.75
2022-08-19T09:49:27.048Z,3.50
2022-08-19T09:50:30.118Z,3.00
2022-08-19T09:51:35.026Z,3.00
2022-08-19T09:52:38.109Z,3.00
2022-08-19T09:53:41.914Z,4.00
2022-08-19T09:54:45.314Z,3.50
2022-08-19T09:55:49.915Z,3.00
2022-08-19T09:56:53.213Z,3.00
2022-08-19T09:57:56.488Z,2.00
2022-08-19T09:58:59.980Z,2.25
2022-08-19T10:00:03.481Z,2.50
2022-08-19T10:01:06.893Z,3.00
2022-08-19T10:02:10.815Z,3.25
2022-08-19T10:03:14.544Z,3.50
2022-08-19T10:04:20.614Z,2.50
2022-08-19T10:05:26.634Z,2.50
2022-08-19T10:06:45.682Z,3.00
2022-08-19T10:07:36.404Z,2.50
2022-08-19T10:08:34.861Z,1.50
2022-08-19T10:09:37.939Z,2.25
2022-08-19T10:10:43.131Z,2.50
2022-08-19T10:11:52.708Z,3.00
2022-08-19T10:12:50.762Z,3.00
2022-08-19T10:13:53.790Z,2.75
2022-08-19T10:14:56.667Z,2.25
2022-08-19T10:15:59.589Z,2.50
2022-08-19T10:17:17.436Z,2.50
2022-08-19T10:18:06.929Z,2.50
2022-08-19T10:19:09.860Z,2.25
2022-08-19T10:20:12.926Z,2.25
2022-08-19T10:21:15.968Z,2.00
2022-08-19T10:22:18.999Z,2.50
2022-08-19T10:23:22.274Z,3.00
2022-08-19T10:24:25.450Z,2.00
2022-08-19T10:25:28.644Z,1.50
2022-08-19T10:26:32.942Z,2.00
2022-08-19T10:27:36.223Z,2.25
2022-08-19T10:28:39.511Z,3.00
2022-08-19T10:29:46.321Z,2.00
2022-08-19T10:30:47.838Z,2.00
2022-08-19T10:31:58.777Z,2.50
2022-08-19T10:32:55.309Z,2.50
2022-08-19T10:33:58.798Z,2.50
2022-08-19T10:35:02.911Z,1.00
2022-08-19T10:36:07.222Z,1.50
2022-08-19T10:37:11.106Z,2.00
2022-08-19T10:38:15.211Z,2.00
2022-08-19T10:39:18.497Z,2.00
2022-08-19T10:40:22.856Z,2.50
2022-08-19T10:41:26.092Z,2.00
2022-08-19T10:42:29.125Z,2.50
2022-08-19T10:43:32.041Z,3.00
2022-08-19T10:44:35.126Z,3.00
2022-08-19T10:45:38.404Z,2.00
2022-08-19T10:46:43.544Z,2.50
2022-08-19T10:47:46.724Z,2.75
2022-08-19T10:48:49.901Z,2.50
2022-08-19T10:49:53.400Z,3.00
2022-08-19T10:50:56.585Z,2.75
2022-08-19T10:51:59.759Z,2.25
2022-08-19T10:53:03.131Z,2.00
2022-08-19T10:54:07.233Z,2.50
2022-08-19T10:55:11.559Z,2.00
2022-08-19T10:56:14.627Z,2.50
2022-08-19T10:57:17.818Z,3.00
2022-08-19T10:58:21.103Z,3.50
2022-08-19T10:59:26.733Z,4.50
2022-08-19T11:00:28.496Z,4.50
2022-08-19T11:01:31.742Z,6.00
2022-08-19T11:02:34.858Z,7.00
2022-08-19T11:03:38.026Z,7.50
2022-08-19T11:04:41.101Z,5.50
2022-08-19T11:05:44.389Z,4.50
2022-08-19T11:06:47.467Z,6.50
2022-08-19T11:07:50.547Z,8.00
2022-08-19T11:08:53.838Z,7.50
2022-08-19T11:09:57.120Z,7.50
2022-08-19T11:11:00.291Z,6.75
2022-08-19T11:12:04.909Z,4.00
2022-08-19T11:13:07.595Z,4.50
2022-08-19T11:14:10.621Z,3.50
2022-08-19T11:15:13.747Z,4.25
2022-08-19T11:16:16.721Z,5.00
2022-08-19T11:17:19.911Z,7.00
2022-08-19T11:18:23.095Z,4.50
2022-08-19T11:19:26.363Z,6.75
2022-08-19T11:20:29.413Z,5.50
2022-08-19T11:21:32.537Z,5.00
2022-08-19T11:22:40.536Z,4.50
2022-08-19T11:23:39.820Z,5.50
2022-08-19T11:24:43.105Z,5.00
2022-08-19T11:25:46.478Z,4.50
2022-08-19T11:26:49.537Z,4.50
2022-08-19T11:27:52.735Z,3.75
2022-08-19T11:28:55.801Z,4.00
2022-08-19T11:29:58.911Z,4.25
2022-08-19T11:31:01.963Z,5.00
2022-08-19T11:32:05.049Z,5.00
2022-08-19T11:33:08.150Z,6.25
2022-08-19T11:34:11.146Z,6.60
2022-08-19T11:35:14.209Z,7.00
2022-08-19T11:36:17.172Z,5.75
2022-08-19T11:37:20.368Z,5.50
2022-08-19T11:38:23.742Z,5.50
2022-08-19T11:39:26.829Z,4.00
2022-08-19T11:40:30.002Z,4.40
2022-08-19T11:41:34.012Z,3.50
2022-08-19T11:42:37.707Z,4.00
2022-08-19T11:43:41.098Z,4.25
2022-08-19T11:44:44.167Z,3.50
2022-08-19T11:45:47.559Z,3.50
2022-08-19T11:46:50.842Z,3.50
2022-08-19T11:47:54.372Z,3.50
2022-08-19T11:48:57.830Z,3.25
2022-08-19T11:50:01.108Z,3.50
2022-08-19T11:51:04.275Z,4.00
2022-08-19T11:52:07.700Z,3.00
2022-08-19T11:53:10.847Z,3.00
2022-08-19T11:54:14.233Z,3.00
2022-08-19T11:55:17.428Z,2.00
2022-08-19T11:56:20.594Z,2.50
2022-08-19T11:57:23.780Z,3.00
2022-08-19T11:58:26.948Z,3.00
2022-08-19T11:59:30.051Z,3.50
2022-08-19T12:00:33.426Z,3.00
2022-08-19T12:01:36.825Z,3.00
2022-08-19T12:02:40.140Z,2.50
2022-08-19T12:03:43.410Z,1.50
2022-08-19T12:04:46.680Z,2.00
2022-08-19T12:05:50.154Z,3.00
2022-08-19T12:06:53.747Z,2.50
2022-08-19T12:07:57.012Z,3.50
2022-08-19T12:09:00.330Z,3.50
2022-08-19T12:10:04.414Z,2.50
2022-08-19T12:11:07.819Z,2.75
2022-08-19T12:12:11.087Z,3.00
2022-08-19T12:13:14.167Z,2.50
2022-08-19T12:14:17.144Z,2.00
2022-08-19T12:15:21.450Z,3.00
2022-08-19T12:16:24.635Z,3.00
2022-08-19T12:17:27.741Z,3.50
2022-08-19T12:18:30.800Z,3.00
2022-08-19T12:19:33.976Z,3.50
2022-08-19T12:20:37.064Z,4.00
2022-08-19T12:21:40.247Z,3.50
2022-08-19T12:22:43.430Z,3.00
2022-08-19T12:23:46.702Z,3.00
2022-08-19T12:24:49.899Z,2.50
2022-08-19T12:25:53.070Z,2.00
2022-08-19T12:26:56.349Z,2.00
2022-08-19T12:28:00.854Z,2.50
2022-08-19T12:29:04.055Z,3.00
2022-08-19T12:30:07.021Z,3.00
2022-08-19T12:31:10.106Z,3.00
2022-08-19T12:32:13.155Z,3.25
2022-08-19T12:33:16.277Z,2.25
2022-08-19T12:34:19.344Z,2.50
2022-08-19T12:35:22.628Z,3.50
2022-08-19T12:36:25.813Z,4.00
2022-08-19T12:37:28.988Z,4.00
2022-08-19T12:38:32.023Z,3.00
2022-08-19T12:39:35.076Z,2.75
2022-08-19T12:40:38.326Z,2.75
2022-08-19T12:41:49.198Z,3.25
2022-08-19T12:42:46.026Z,3.50
2022-08-19T12:43:49.271Z,4.00
2022-08-19T12:44:53.112Z,4.50
2022-08-19T12:45:56.496Z,2.50
2022-08-19T12:47:00.094Z,2.00
2022-08-19T12:48:05.714Z,2.00
2022-08-19T12:49:24.117Z,3.50
2022-08-19T12:50:12.596Z,2.50
2022-08-19T12:51:15.983Z,2.00
2022-08-19T12:52:23.364Z,1.50
2022-08-19T12:53:23.268Z,2.00
2022-08-19T12:54:26.453Z,2.75
2022-08-19T12:55:29.638Z,3.00
2022-08-19T12:56:34.053Z,2.00
2022-08-19T12:57:37.447Z,1.50
2022-08-19T12:58:40.621Z,1.50
2022-08-19T12:59:43.795Z,2.00
2022-08-19T13:00:47.145Z,2.50
2022-08-19T13:01:50.481Z,2.50
2022-08-19T13:02:53.646Z,1.50
2022-08-19T13:03:56.927Z,2.00
2022-08-19T13:05:00.112Z,2.00
2022-08-19T13:06:04.627Z,2.25
2022-08-19T13:07:08.117Z,1.50
2022-08-19T13:08:11.293Z,1.50
2022-08-19T13:09:14.587Z,2.00
2022-08-19T13:10:17.764Z,2.50
2022-08-19T13:11:21.053Z,2.75
2022-08-19T13:12:25.041Z,3.00
2022-08-19T13:13:28.310Z,3.00
2022-08-19T13:14:31.284Z,2.50
2022-08-19T13:15:35.837Z,2.00
2022-08-19T13:16:39.120Z,2.00
2022-08-19T13:17:42.400Z,2.00
2022-08-19T13:18:45.614Z,2.00
2022-08-19T13:19:48.959Z,1.50
2022-08-19T13:20:52.847Z,2.00
2022-08-19T13:22:00.198Z,1.75
2022-08-19T13:23:00.855Z,2.00
2022-08-19T13:24:04.242Z,1.50
2022-08-19T13:25:07.634Z,1.50
2022-08-19T13:26:10.912Z,1.00
2022-08-19T13:27:14.202Z,1.00
2022-08-19T13:28:17.355Z,1.50
2022-08-19T13:29:21.694Z,2.00
2022-08-19T13:30:24.780Z,2.00
2022-08-19T13:31:28.046Z,2.00
2022-08-19T13:32:31.151Z,2.50
2022-08-19T13:33:34.517Z,2.50
2022-08-19T13:34:37.914Z,2.00
2022-08-19T13:35:41.308Z,2.00
2022-08-19T13:36:44.689Z,2.50
2022-08-19T13:37:47.868Z,2.50
2022-08-19T13:38:51.154Z,1.50
2022-08-19T13:39:54.601Z,1.50
2022-08-19T13:40:57.875Z,1.50
2022-08-19T13:42:01.098Z,3.00
2022-08-19T13:43:04.380Z,3.00
2022-08-19T13:44:08.906Z,2.50
2022-08-19T13:45:12.193Z,2.00
2022-08-19T13:46:15.058Z,1.75
2022-08-19T13:47:18.258Z,2.00
2022-08-19T13:48:21.424Z,2.50
2022-08-19T13:49:24.514Z,2.50
2022-08-19T13:50:27.587Z,2.00
2022-08-19T13:51:31.693Z,3.50
2022-08-19T13:52:34.667Z,2.00
2022-08-19T13:53:37.943Z,1.50
2022-08-19T13:54:42.267Z,1.50
2022-08-19T13:55:45.535Z,2.00
2022-08-19T13:56:48.928Z,2.00
2022-08-19T13:57:52.319Z,2.25
2022-08-19T13:58:55.804Z,1.50
2022-08-19T14:00:00.230Z,2.00
2022-08-19T14:01:03.554Z,2.00
2022-08-19T14:02:06.896Z,2.00
2022-08-19T14:03:10.387Z,2.50
2022-08-19T14:04:13.560Z,2.00
2022-08-19T14:05:16.953Z,1.25
2022-08-19T14:06:20.017Z,1.50